createdAt,value
2018-10-17T00:01:11.122Z,96.00
2018-10-17T00:06:15.858Z,96.10
2018-10-17T00:11:21.386Z,95.80
2018-10-17T00:16:25.591Z,94.90
2018-10-17T00:21:29.930Z,95.90
2018-10-17T00:26:35.230Z,96.80
2018-10-17T00:31:40.083Z,96.60
2018-10-17T00:36:44.501Z,96.90
2018-10-17T00:41:50.059Z,97.50
2018-10-17T00:46:54.268Z,97.20
2018-10-17T00:51:59.181Z,96.90
2018-10-17T00:57:03.588Z,96.90
2018-10-17T01:02:07.801Z,96.80
2018-10-17T01:07:12.423Z,97.10
2018-10-17T01:12:16.957Z,96.30
2018-10-17T01:17:22.775Z,96.40
2018-10-17T01:22:27.065Z,96.60
2018-10-17T01:27:32.264Z,97.20
2018-10-17T01:32:37.006Z,98.10
2018-10-17T01:37:41.641Z,98.20
2018-10-17T01:42:46.372Z,98.20
2018-10-17T01:47:51.562Z,97.50
2018-10-17T01:52:55.988Z,97.30
2018-10-17T01:58:00.227Z,97.60
2018-10-17T02:03:04.706Z,98.30
2018-10-17T02:08:09.253Z,98.60
2018-10-17T02:13:13.934Z,98.50
2018-10-17T02:18:18.327Z,98.70
2018-10-17T02:23:22.558Z,98.40
2018-10-17T02:28:27.909Z,98.30
2018-10-17T02:33:33.044Z,98.10
2018-10-17T02:38:37.340Z,96.80
2018-10-17T02:43:41.575Z,97.90
2018-10-17T02:48:46.638Z,98.60
2018-10-17T02:53:51.045Z,98.20
2018-10-17T02:58:55.903Z,99.00
2018-10-17T03:04:00.129Z,99.30
2018-10-17T03:09:06.689Z,99.10
2018-10-17T03:14:11.810Z,98.90
2018-10-17T03:19:16.192Z,98.80
2018-10-17T03:24:21.241Z,98.90
2018-10-17T03:29:26.078Z,99.00
2018-10-17T03:34:30.510Z,99.50
2018-10-17T03:39:35.078Z,99.30
2018-10-17T03:44:39.480Z,99.20
2018-10-17T03:49:44.257Z,98.90
2018-10-17T03:54:48.923Z,99.30
2018-10-17T03:59:53.186Z,99.70
2018-10-17T04:04:57.484Z,99.90
2018-10-17T04:10:02.857Z,99.90
2018-10-17T04:15:08.055Z,99.90
2018-10-17T04:20:12.662Z,99.90
2018-10-17T04:25:18.027Z,99.90
2018-10-17T04:30:23.381Z,99.90
2018-10-17T04:35:30.538Z,99.90
2018-10-17T04:40:35.046Z,99.90
2018-10-17T04:45:39.822Z,99.90
2018-10-17T04:50:44.763Z,99.90
2018-10-17T04:55:49.829Z,99.90
2018-10-17T05:00:54.499Z,99.80
2018-10-17T05:05:59.996Z,99.40
2018-10-17T05:11:05.720Z,99.60
2018-10-17T05:16:10.033Z,99.90
2018-10-17T05:21:14.940Z,99.90
2018-10-17T05:26:20.157Z,99.90
2018-10-17T05:31:28.665Z,99.90
2018-10-17T05:36:37.071Z,99.90
2018-10-17T05:41:45.925Z,99.90
2018-10-17T05:54:50.289Z,99.90
2018-10-17T05:59:55.538Z,99.70
2018-10-17T06:05:00.093Z,99.90
2018-10-17T06:10:04.570Z,99.90
2018-10-17T06:15:08.626Z,99.90
2018-10-17T06:20:13.289Z,99.90
2018-10-17T06:25:17.629Z,99.90
2018-10-17T06:30:21.899Z,94.30
2018-10-17T06:35:26.351Z,91.30
2018-10-17T06:40:30.477Z,87.30
2018-10-17T06:45:34.636Z,78.90
2018-10-17T06:50:39.055Z,73.50
2018-10-17T06:55:43.588Z,68.60
2018-10-17T07:00:47.915Z,65.10
2018-10-17T07:05:52.384Z,62.10
2018-10-17T07:10:56.501Z,60.30
2018-10-17T07:16:00.802Z,59.60
2018-10-17T07:21:05.795Z,56.90
2018-10-17T07:26:10.219Z,56.00
2018-10-17T07:31:14.765Z,57.60
2018-10-17T07:36:19.658Z,60.20
2018-10-17T07:41:23.963Z,59.20
2018-10-17T07:46:29.194Z,55.70
2018-10-17T07:51:33.366Z,49.90
2018-10-17T07:56:37.544Z,45.00
2018-10-17T08:01:42.216Z,42.20
2018-10-17T08:06:46.635Z,42.10
2018-10-17T08:11:51.077Z,40.00
2018-10-17T08:16:55.187Z,40.80
2018-10-17T08:21:59.256Z,41.10
2018-10-17T08:27:03.406Z,41.40
2018-10-17T08:32:08.668Z,40.80
2018-10-17T08:37:13.755Z,42.20
2018-10-17T08:42:17.813Z,43.10
2018-10-17T08:47:21.973Z,44.20
2018-10-17T08:52:26.170Z,44.70
2018-10-17T08:57:30.315Z,43.20
2018-10-17T09:02:34.760Z,44.10
2018-10-17T09:07:39.137Z,45.60
2018-10-17T09:12:43.687Z,44.70
2018-10-17T09:17:47.775Z,43.80
2018-10-17T09:22:51.833Z,41.00
2018-10-17T09:27:56.408Z,39.90
2018-10-17T09:33:00.634Z,39.30
2018-10-17T09:38:04.937Z,38.30
2018-10-17T09:43:09.327Z,40.90
2018-10-17T09:48:13.663Z,46.10
2018-10-17T09:53:17.989Z,48.30
2018-10-17T09:58:22.649Z,49.60
2018-10-17T10:03:26.938Z,52.50
2018-10-17T10:08:31.021Z,52.70
2018-10-17T10:13:35.189Z,52.90
2018-10-17T10:18:39.307Z,55.20
2018-10-17T10:23:44.589Z,53.60
2018-10-17T10:28:48.795Z,54.40
2018-10-17T10:33:53.051Z,54.40
2018-10-17T10:38:57.130Z,53.70
2018-10-17T10:44:01.257Z,52.60
2018-10-17T10:49:05.668Z,52.50
2018-10-17T10:54:09.892Z,53.20
2018-10-17T10:59:14.399Z,53.00
2018-10-17T11:04:18.773Z,52.40
2018-10-17T11:09:23.221Z,50.60
2018-10-17T11:14:27.422Z,50.10
2018-10-17T11:19:32.223Z,49.40
2018-10-17T11:24:36.862Z,49.40
2018-10-17T11:29:41.385Z,49.50
2018-10-17T11:34:45.785Z,49.10
2018-10-17T11:39:49.981Z,49.50
2018-10-17T11:44:54.108Z,49.70
2018-10-17T11:49:58.157Z,49.30
2018-10-17T11:55:03.016Z,49.20
2018-10-17T12:00:09.493Z,49.10
2018-10-17T12:05:15.961Z,48.40
2018-10-17T12:10:20.272Z,48.50
2018-10-17T12:15:24.346Z,48.20
2018-10-17T12:20:28.445Z,48.50
2018-10-17T12:25:32.823Z,47.90
2018-10-17T12:30:37.554Z,48.30
2018-10-17T12:35:42.041Z,48.50
2018-10-17T12:40:46.698Z,48.70
2018-10-17T12:45:50.934Z,48.90
2018-10-17T12:50:55.066Z,49.10
2018-10-17T12:55:59.830Z,49.40
2018-10-17T13:01:04.245Z,49.90
2018-10-17T13:06:09.114Z,49.20
2018-10-17T13:11:13.473Z,49.50
2018-10-17T13:16:17.512Z,48.90
2018-10-17T13:21:21.905Z,49.00
2018-10-17T13:26:26.175Z,49.80
2018-10-17T13:31:30.718Z,48.70
2018-10-17T13:36:35.202Z,49.10
2018-10-17T13:41:39.420Z,49.80
2018-10-17T13:46:43.653Z,51.20
2018-10-17T13:51:47.933Z,50.90
2018-10-17T13:56:52.352Z,50.60
2018-10-17T14:01:56.707Z,50.90
2018-10-17T14:07:01.284Z,51.00
2018-10-17T14:12:06.200Z,51.60
2018-10-17T14:17:10.350Z,52.10
2018-10-17T14:22:16.175Z,52.60
2018-10-17T14:27:20.954Z,52.80
2018-10-17T14:32:25.066Z,53.20
2018-10-17T14:37:29.424Z,53.50
2018-10-17T14:42:33.847Z,53.90
2018-10-17T14:47:38.879Z,53.80
2018-10-17T14:52:43.342Z,54.40
2018-10-17T14:57:48.024Z,53.50
2018-10-17T15:02:52.324Z,53.90
2018-10-17T15:07:56.683Z,54.50
2018-10-17T15:13:00.862Z,54.30
2018-10-17T15:18:05.017Z,54.60
2018-10-17T15:23:09.247Z,55.40
2018-10-17T15:28:13.480Z,56.00
2018-10-17T15:33:17.877Z,57.00
2018-10-17T15:38:23.669Z,57.20
2018-10-17T15:43:28.666Z,57.70
2018-10-17T15:48:34.002Z,58.30
2018-10-17T15:53:38.555Z,58.70
2018-10-17T15:58:43.006Z,59.70
2018-10-17T16:03:47.260Z,59.90
2018-10-17T16:08:51.873Z,59.80
2018-10-17T16:13:57.853Z,60.30
2018-10-17T16:19:02.827Z,60.80
2018-10-17T16:24:07.443Z,62.10
2018-10-17T16:29:12.613Z,63.60
2018-10-17T16:34:17.326Z,63.90
2018-10-17T16:39:21.663Z,65.80
2018-10-17T16:44:26.235Z,68.40
2018-10-17T16:49:30.532Z,71.00
2018-10-17T16:54:35.022Z,73.30
2018-10-17T16:59:39.939Z,75.90
2018-10-17T17:04:44.622Z,76.30
2018-10-17T17:09:50.717Z,77.90
2018-10-17T17:14:55.450Z,79.20
2018-10-17T17:19:59.946Z,80.00
2018-10-17T17:25:04.934Z,81.30
2018-10-17T17:30:14.928Z,82.20
2018-10-17T17:40:24.126Z,83.10
2018-10-17T17:45:28.212Z,83.60
2018-10-17T17:50:32.420Z,83.80
2018-10-17T17:55:37.332Z,84.70
2018-10-17T18:00:41.921Z,85.30
2018-10-17T18:05:46.386Z,85.50
2018-10-17T18:10:50.548Z,86.00
2018-10-17T18:15:54.819Z,86.70
2018-10-17T18:20:59.673Z,86.80
2018-10-17T18:26:04.376Z,86.70
2018-10-17T18:31:08.968Z,86.10
2018-10-17T18:36:13.091Z,86.40
2018-10-17T18:41:17.320Z,87.30
2018-10-17T18:46:22.866Z,88.20
2018-10-17T18:51:27.842Z,88.40
2018-10-17T18:56:32.101Z,88.40
2018-10-17T19:01:36.396Z,89.10
2018-10-17T19:06:40.780Z,90.00
2018-10-17T19:11:46.228Z,90.20
2018-10-17T19:16:51.125Z,90.60
2018-10-17T19:21:55.314Z,90.90
2018-10-17T19:26:59.755Z,91.10
2018-10-17T19:32:04.254Z,91.10
2018-10-17T19:37:08.644Z,91.10
2018-10-17T19:42:12.797Z,91.30
2018-10-17T19:47:17.070Z,92.00
2018-10-17T19:52:21.531Z,91.80
2018-10-17T19:57:25.758Z,91.50
2018-10-17T20:02:30.292Z,91.30
2018-10-17T20:07:34.518Z,91.50
2018-10-17T20:12:38.775Z,91.70
2018-10-17T20:17:42.845Z,92.00
2018-10-17T20:22:47.223Z,92.90
2018-10-17T20:27:51.520Z,93.30
2018-10-17T20:32:56.181Z,93.40
2018-10-17T20:38:00.641Z,93.00
2018-10-17T20:43:04.797Z,93.30
2018-10-17T20:48:08.959Z,92.70
2018-10-17T20:53:13.713Z,93.00
2018-10-17T20:58:18.052Z,93.40
2018-10-17T21:03:22.478Z,94.10
2018-10-17T21:08:26.625Z,94.40
2018-10-17T21:13:30.703Z,94.10
2018-10-17T21:18:35.165Z,94.70
2018-10-17T21:23:39.446Z,94.80
2018-10-17T21:28:43.714Z,95.30
2018-10-17T21:33:48.188Z,95.00
2018-10-17T21:38:52.515Z,95.40
2018-10-17T21:43:56.629Z,96.50
2018-10-17T21:49:01.064Z,96.20
2018-10-17T21:54:06.371Z,96.20
2018-10-17T21:59:10.922Z,96.10
2018-10-17T22:04:15.393Z,96.00
2018-10-17T22:09:19.473Z,96.10
2018-10-17T22:14:23.644Z,96.20
2018-10-17T22:19:28.533Z,96.30
2018-10-17T22:24:32.998Z,96.70
2018-10-17T22:29:37.624Z,96.40
2018-10-17T22:34:41.779Z,96.10
2018-10-17T22:39:45.991Z,96.50
2018-10-17T22:44:50.400Z,96.70
2018-10-17T22:49:54.928Z,96.30
2018-10-17T22:54:59.496Z,96.40
2018-10-17T23:00:03.698Z,96.80
2018-10-17T23:05:07.845Z,97.20
2018-10-17T23:10:12.656Z,97.60
2018-10-17T23:15:17.187Z,97.70
2018-10-17T23:20:21.714Z,98.20
2018-10-17T23:25:25.801Z,98.10
2018-10-17T23:30:29.884Z,98.00
2018-10-17T23:35:34.324Z,98.00
2018-10-17T23:40:38.814Z,97.80
2018-10-17T23:45:43.300Z,97.90
2018-10-17T23:50:47.834Z,98.10
2018-10-17T23:55:52.099Z,98.00
